sensor_id;sensor_type;location;lat;lon;timestamp;P1;durP1;ratioP1;P2;durP2;ratioP2
40847;SDS011;26570;50.962;5.340;2023-02-28T01:01:47;9.43;;;4.37;;
40847;SDS011;26570;50.962;5.340;2023-02-28T01:04:35;6.47;;;4.20;;
40847;SDS011;26570;50.962;5.340;2023-02-28T01:07:20;11.40;;;4.30;;
40847;SDS011;26570;50.962;5.340;2023-02-28T01:10:05;10.53;;;3.53;;
40847;SDS011;26570;50.962;5.340;2023-02-28T01:13:14;8.53;;;4.33;;
40847;SDS011;26570;50.962;5.340;2023-02-28T01:15:59;9.63;;;4.33;;
40847;SDS011;26570;50.962;5.340;2023-02-28T01:18:45;8.87;;;4.07;;
40847;SDS011;26570;50.962;5.340;2023-02-28T01:21:30;10.77;;;4.60;;
40847;SDS011;26570;50.962;5.340;2023-02-28T01:24:16;9.23;;;4.57;;
40847;SDS011;26570;50.962;5.340;2023-02-28T01:27:01;11.33;;;4.63;;
40847;SDS011;26570;50.962;5.340;2023-02-28T01:29:50;12.07;;;4.67;;
40847;SDS011;26570;50.962;5.340;2023-02-28T01:32:35;8.47;;;4.13;;
40847;SDS011;26570;50.962;5.340;2023-02-28T01:35:20;11.87;;;4.13;;
40847;SDS011;26570;50.962;5.340;2023-02-28T01:38:06;11.33;;;5.00;;
40847;SDS011;26570;50.962;5.340;2023-02-28T01:40:51;9.37;;;4.17;;
40847;SDS011;26570;50.962;5.340;2023-02-28T01:46:27;10.47;;;4.93;;
40847;SDS011;26570;50.962;5.340;2023-02-28T01:49:13;7.97;;;4.87;;
40847;SDS011;26570;50.962;5.340;2023-02-28T01:52:00;9.00;;;4.73;;
40847;SDS011;26570;50.962;5.340;2023-02-28T01:54:46;11.13;;;5.57;;
40847;SDS011;26570;50.962;5.340;2023-02-28T01:57:52;8.30;;;4.83;;
40847;SDS011;26570;50.962;5.340;2023-02-28T02:00:41;12.80;;;4.90;;
40847;SDS011;26570;50.962;5.340;2023-02-28T02:03:26;10.57;;;5.17;;
40847;SDS011;26570;50.962;5.340;2023-02-28T02:06:12;20.00;;;6.23;;
40847;SDS011;26570;50.962;5.340;2023-02-28T02:08:56;10.67;;;5.97;;
40847;SDS011;26570;50.962;5.340;2023-02-28T02:11:42;11.70;;;6.00;;
40847;SDS011;26570;50.962;5.340;2023-02-28T02:34:05;13.17;;;5.37;;
40847;SDS011;26570;50.962;5.340;2023-02-28T02:40:18;10.70;;;5.27;;
40847;SDS011;26570;50.962;5.340;2023-02-28T02:46:34;12.03;;;5.80;;
40847;SDS011;26570;50.962;5.340;2023-02-28T02:49:26;12.53;;;5.80;;
40847;SDS011;26570;50.962;5.340;2023-02-28T02:52:15;17.20;;;5.47;;
40847;SDS011;26570;50.962;5.340;2023-02-28T02:55:05;16.43;;;5.90;;
40847;SDS011;26570;50.962;5.340;2023-02-28T02:57:57;10.27;;;4.90;;
40847;SDS011;26570;50.962;5.340;2023-02-28T03:00:47;12.23;;;6.50;;
40847;SDS011;26570;50.962;5.340;2023-02-28T03:03:37;9.83;;;6.03;;
40847;SDS011;26570;50.962;5.340;2023-02-28T03:06:22;12.40;;;6.50;;
40847;SDS011;26570;50.962;5.340;2023-02-28T03:09:08;11.13;;;5.50;;
40847;SDS011;26570;50.962;5.340;2023-02-28T03:11:54;10.30;;;6.17;;
40847;SDS011;26570;50.962;5.340;2023-02-28T03:17:56;18.23;;;6.80;;
40847;SDS011;26570;50.962;5.340;2023-02-28T03:27:00;12.47;;;6.57;;
40847;SDS011;26570;50.962;5.340;2023-02-28T03:32:52;13.73;;;7.23;;
40847;SDS011;26570;50.962;5.340;2023-02-28T03:35:41;14.93;;;7.30;;
40847;SDS011;26570;50.962;5.340;2023-02-28T03:41:36;14.33;;;7.30;;
40847;SDS011;26570;50.962;5.340;2023-02-28T03:44:32;16.10;;;7.00;;
40847;SDS011;26570;50.962;5.340;2023-02-28T03:47:27;10.50;;;6.83;;
40847;SDS011;26570;50.962;5.340;2023-02-28T03:53:27;16.60;;;7.40;;
40847;SDS011;26570;50.962;5.340;2023-02-28T03:59:43;11.73;;;6.10;;
40847;SDS011;26570;50.962;5.340;2023-02-28T04:02:34;9.33;;;5.67;;
40847;SDS011;26570;50.962;5.340;2023-02-28T04:05:20;16.87;;;7.90;;
40847;SDS011;26570;50.962;5.340;2023-02-28T04:08:06;10.60;;;6.07;;
40847;SDS011;26570;50.962;5.340;2023-02-28T04:10:54;10.57;;;6.80;;
40847;SDS011;26570;50.962;5.340;2023-02-28T04:14:15;15.67;;;6.73;;
40847;SDS011;26570;50.962;5.340;2023-02-28T04:17:00;11.67;;;7.23;;
40847;SDS011;26570;50.962;5.340;2023-02-28T04:19:45;20.40;;;7.10;;
40847;SDS011;26570;50.962;5.340;2023-02-28T04:22:34;17.27;;;6.13;;
40847;SDS011;26570;50.962;5.340;2023-02-28T04:25:19;17.37;;;6.27;;
40847;SDS011;26570;50.962;5.340;2023-02-28T04:28:04;12.10;;;6.33;;
40847;SDS011;26570;50.962;5.340;2023-02-28T04:30:59;11.47;;;7.20;;
40847;SDS011;26570;50.962;5.340;2023-02-28T04:34:13;12.10;;;6.65;;
40847;SDS011;26570;50.962;5.340;2023-02-28T04:36:59;11.03;;;6.27;;
40847;SDS011;26570;50.962;5.340;2023-02-28T04:39:44;13.57;;;7.53;;
40847;SDS011;26570;50.962;5.340;2023-02-28T04:42:29;10.97;;;6.13;;
40847;SDS011;26570;50.962;5.340;2023-02-28T04:45:41;10.20;;;6.57;;
40847;SDS011;26570;50.962;5.340;2023-02-28T04:48:28;10.67;;;7.10;;
40847;SDS011;26570;50.962;5.340;2023-02-28T04:51:14;16.93;;;7.10;;
40847;SDS011;26570;50.962;5.340;2023-02-28T04:54:01;11.90;;;6.83;;
40847;SDS011;26570;50.962;5.340;2023-02-28T04:57:08;17.20;;;6.70;;
40847;SDS011;26570;50.962;5.340;2023-02-28T04:59:53;14.00;;;6.67;;
40847;SDS011;26570;50.962;5.340;2023-02-28T05:02:39;15.30;;;7.53;;
40847;SDS011;26570;50.962;5.340;2023-02-28T05:05:27;17.47;;;7.60;;
40847;SDS011;26570;50.962;5.340;2023-02-28T05:08:12;18.47;;;8.17;;
40847;SDS011;26570;50.962;5.340;2023-02-28T05:10:57;14.73;;;7.57;;
40847;SDS011;26570;50.962;5.340;2023-02-28T05:13:44;14.07;;;7.20;;
40847;SDS011;26570;50.962;5.340;2023-02-28T05:16:30;10.80;;;7.10;;
40847;SDS011;26570;50.962;5.340;2023-02-28T05:19:16;19.77;;;8.67;;
40847;SDS011;26570;50.962;5.340;2023-02-28T05:22:01;12.67;;;8.80;;
40847;SDS011;26570;50.962;5.340;2023-02-28T05:24:47;14.90;;;7.87;;
40847;SDS011;26570;50.962;5.340;2023-02-28T05:27:32;15.47;;;8.20;;
40847;SDS011;26570;50.962;5.340;2023-02-28T05:30:17;17.10;;;8.37;;
40847;SDS011;26570;50.962;5.340;2023-02-28T05:33:02;13.00;;;7.57;;
40847;SDS011;26570;50.962;5.340;2023-02-28T05:35:48;18.83;;;9.67;;
40847;SDS011;26570;50.962;5.340;2023-02-28T05:38:33;17.30;;;8.50;;
40847;SDS011;26570;50.962;5.340;2023-02-28T05:41:41;15.90;;;8.47;;
40847;SDS011;26570;50.962;5.340;2023-02-28T05:44:27;18.20;;;7.83;;
40847;SDS011;26570;50.962;5.340;2023-02-28T05:47:34;19.10;;;8.67;;
40847;SDS011;26570;50.962;5.340;2023-02-28T05:50:19;14.87;;;8.60;;
40847;SDS011;26570;50.962;5.340;2023-02-28T05:53:04;24.93;;;8.87;;
40847;SDS011;26570;50.962;5.340;2023-02-28T05:55:49;17.37;;;8.60;;
40847;SDS011;26570;50.962;5.340;2023-02-28T05:58:34;20.80;;;9.23;;
40847;SDS011;26570;50.962;5.340;2023-02-28T06:01:42;22.13;;;9.17;;
40847;SDS011;26570;50.962;5.340;2023-02-28T06:04:37;14.23;;;9.00;;
40847;SDS011;26570;50.962;5.340;2023-02-28T06:07:45;17.87;;;9.23;;
40847;SDS011;26570;50.962;5.340;2023-02-28T06:10:52;18.23;;;8.90;;
40847;SDS011;26570;50.962;5.340;2023-02-28T06:13:37;22.90;;;8.50;;
40847;SDS011;26570;50.962;5.340;2023-02-28T06:16:23;16.53;;;9.80;;
40847;SDS011;26570;50.962;5.340;2023-02-28T06:19:08;18.97;;;9.07;;
40847;SDS011;26570;50.962;5.340;2023-02-28T06:21:54;15.83;;;8.70;;
40847;SDS011;26570;50.962;5.340;2023-02-28T06:25:04;21.63;;;9.90;;
40847;SDS011;26570;50.962;5.340;2023-02-28T06:27:50;16.83;;;9.67;;
40847;SDS011;26570;50.962;5.340;2023-02-28T06:30:36;17.87;;;10.13;;
40847;SDS011;26570;50.962;5.340;2023-02-28T06:33:22;23.33;;;9.40;;
40847;SDS011;26570;50.962;5.340;2023-02-28T06:36:08;15.30;;;8.83;;
40847;SDS011;26570;50.962;5.340;2023-02-28T06:38:54;21.63;;;8.80;;
40847;SDS011;26570;50.962;5.340;2023-02-28T06:41:40;17.67;;;9.43;;
40847;SDS011;26570;50.962;5.340;2023-02-28T06:44:25;15.03;;;8.23;;
40847;SDS011;26570;50.962;5.340;2023-02-28T06:47:10;13.83;;;9.37;;
40847;SDS011;26570;50.962;5.340;2023-02-28T06:49:54;24.27;;;9.83;;
40847;SDS011;26570;50.962;5.340;2023-02-28T06:53:02;21.30;;;9.43;;
40847;SDS011;26570;50.962;5.340;2023-02-28T06:56:11;17.47;;;9.00;;
40847;SDS011;26570;50.962;5.340;2023-02-28T06:58:58;16.43;;;8.67;;
40847;SDS011;26570;50.962;5.340;2023-02-28T07:01:46;17.80;;;8.77;;
40847;SDS011;26570;50.962;5.340;2023-02-28T07:04:54;13.63;;;8.33;;
40847;SDS011;26570;50.962;5.340;2023-02-28T07:07:39;15.47;;;8.70;;
40847;SDS011;26570;50.962;5.340;2023-02-28T07:10:53;21.67;;;8.87;;
40847;SDS011;26570;50.962;5.340;2023-02-28T07:13:41;16.30;;;7.83;;
40847;SDS011;26570;50.962;5.340;2023-02-28T07:16:26;12.30;;;7.57;;
40847;SDS011;26570;50.962;5.340;2023-02-28T07:19:14;12.80;;;7.03;;
40847;SDS011;26570;50.962;5.340;2023-02-28T07:22:02;11.80;;;6.07;;
40847;SDS011;26570;50.962;5.340;2023-02-28T07:24:47;11.70;;;5.13;;
40847;SDS011;26570;50.962;5.340;2023-02-28T07:27:32;10.50;;;4.17;;
40847;SDS011;26570;50.962;5.340;2023-02-28T07:30:18;8.73;;;4.37;;
40847;SDS011;26570;50.962;5.340;2023-02-28T07:33:04;8.00;;;3.77;;
40847;SDS011;26570;50.962;5.340;2023-02-28T07:35:52;13.30;;;4.10;;
40847;SDS011;26570;50.962;5.340;2023-02-28T07:38:47;7.13;;;3.80;;
40847;SDS011;26570;50.962;5.340;2023-02-28T07:41:57;6.57;;;2.17;;
40847;SDS011;26570;50.962;5.340;2023-02-28T07:44:44;8.43;;;2.70;;
40847;SDS011;26570;50.962;5.340;2023-02-28T07:47:29;5.47;;;2.70;;
40847;SDS011;26570;50.962;5.340;2023-02-28T07:50:14;9.27;;;3.17;;
40847;SDS011;26570;50.962;5.340;2023-02-28T07:53:00;8.80;;;2.40;;
40847;SDS011;26570;50.962;5.340;2023-02-28T07:55:45;6.87;;;2.60;;
40847;SDS011;26570;50.962;5.340;2023-02-28T07:58:30;7.70;;;2.43;;
40847;SDS011;26570;50.962;5.340;2023-02-28T08:01:15;5.30;;;2.00;;
40847;SDS011;26570;50.962;5.340;2023-02-28T08:04:00;5.90;;;1.70;;
40847;SDS011;26570;50.962;5.340;2023-02-28T08:06:45;5.60;;;2.23;;
40847;SDS011;26570;50.962;5.340;2023-02-28T08:09:53;6.80;;;1.83;;
40847;SDS011;26570;50.962;5.340;2023-02-28T08:12:37;7.83;;;2.20;;
40847;SDS011;26570;50.962;5.340;2023-02-28T08:15:45;4.97;;;1.50;;
40847;SDS011;26570;50.962;5.340;2023-02-28T08:18:32;4.73;;;1.90;;
40847;SDS011;26570;50.962;5.340;2023-02-28T08:21:17;3.87;;;1.50;;
40847;SDS011;26570;50.962;5.340;2023-02-28T08:24:03;4.53;;;1.37;;
40847;SDS011;26570;50.962;5.340;2023-02-28T08:26:49;7.83;;;1.57;;
40847;SDS011;26570;50.962;5.340;2023-02-28T08:29:36;5.63;;;1.10;;
40847;SDS011;26570;50.962;5.340;2023-02-28T08:32:44;5.37;;;1.63;;
40847;SDS011;26570;50.962;5.340;2023-02-28T08:35:29;4.10;;;1.63;;
40847;SDS011;26570;50.962;5.340;2023-02-28T08:38:37;5.70;;;1.63;;
40847;SDS011;26570;50.962;5.340;2023-02-28T08:41:23;9.47;;;1.60;;
40847;SDS011;26570;50.962;5.340;2023-02-28T08:44:11;4.67;;;1.40;;
40847;SDS011;26570;50.962;5.340;2023-02-28T08:46:56;3.27;;;1.17;;
40847;SDS011;26570;50.962;5.340;2023-02-28T08:49:41;2.90;;;0.90;;
40847;SDS011;26570;50.962;5.340;2023-02-28T08:52:49;2.50;;;0.97;;
40847;SDS011;26570;50.962;5.340;2023-02-28T08:55:34;3.07;;;1.03;;
40847;SDS011;26570;50.962;5.340;2023-02-28T08:58:20;6.73;;;1.27;;
40847;SDS011;26570;50.962;5.340;2023-02-28T09:01:15;2.23;;;0.90;;
40847;SDS011;26570;50.962;5.340;2023-02-28T09:04:28;6.33;;;1.13;;
40847;SDS011;26570;50.962;5.340;2023-02-28T09:07:37;3.60;;;0.90;;
40847;SDS011;26570;50.962;5.340;2023-02-28T09:10:25;4.73;;;1.13;;
40847;SDS011;26570;50.962;5.340;2023-02-28T09:13:12;2.87;;;1.00;;
40847;SDS011;26570;50.962;5.340;2023-02-28T09:15:58;2.20;;;0.93;;
40847;SDS011;26570;50.962;5.340;2023-02-28T09:19:10;2.70;;;0.83;;
40847;SDS011;26570;50.962;5.340;2023-02-28T09:22:02;2.03;;;0.80;;
40847;SDS011;26570;50.962;5.340;2023-02-28T09:24:53;2.67;;;0.60;;
40847;SDS011;26570;50.962;5.340;2023-02-28T09:27:39;2.70;;;0.70;;
40847;SDS011;26570;50.962;5.340;2023-02-28T09:30:25;2.00;;;0.60;;
40847;SDS011;26570;50.962;5.340;2023-02-28T09:33:38;2.13;;;0.70;;
40847;SDS011;26570;50.962;5.340;2023-02-28T09:36:24;2.20;;;0.60;;
40847;SDS011;26570;50.962;5.340;2023-02-28T09:39:11;3.00;;;0.70;;
40847;SDS011;26570;50.962;5.340;2023-02-28T09:41:57;2.53;;;0.60;;
40847;SDS011;26570;50.962;5.340;2023-02-28T09:44:43;2.57;;;0.50;;
40847;SDS011;26570;50.962;5.340;2023-02-28T09:47:32;1.40;;;0.40;;
40847;SDS011;26570;50.962;5.340;2023-02-28T09:53:29;1.30;;;0.50;;
40847;SDS011;26570;50.962;5.340;2023-02-28T09:56:39;2.45;;;0.50;;
40847;SDS011;26570;50.962;5.340;2023-02-28T09:59:42;2.67;;;0.60;;
40847;SDS011;26570;50.962;5.340;2023-02-28T10:05:38;1.27;;;0.40;;
40847;SDS011;26570;50.962;5.340;2023-02-28T10:08:36;3.37;;;0.50;;
40847;SDS011;26570;50.962;5.340;2023-02-28T10:11:29;5.60;;;0.50;;
40847;SDS011;26570;50.962;5.340;2023-02-28T10:17:24;1.50;;;0.50;;
40847;SDS011;26570;50.962;5.340;2023-02-28T10:20:18;2.23;;;0.57;;
40847;SDS011;26570;50.962;5.340;2023-02-28T10:23:19;2.87;;;0.50;;
40847;SDS011;26570;50.962;5.340;2023-02-28T10:26:19;3.10;;;0.50;;
40847;SDS011;26570;50.962;5.340;2023-02-28T10:29:07;5.13;;;0.60;;
40847;SDS011;26570;50.962;5.340;2023-02-28T10:32:19;1.90;;;0.50;;
40847;SDS011;26570;50.962;5.340;2023-02-28T10:35:15;3.83;;;0.85;;
40847;SDS011;26570;50.962;5.340;2023-02-28T10:38:05;1.40;;;0.50;;
40847;SDS011;26570;50.962;5.340;2023-02-28T10:41:07;1.50;;;0.50;;
40847;SDS011;26570;50.962;5.340;2023-02-28T10:44:11;1.70;;;0.60;;
40847;SDS011;26570;50.962;5.340;2023-02-28T10:49:48;3.73;;;0.50;;
40847;SDS011;26570;50.962;5.340;2023-02-28T10:52:43;2.13;;;0.40;;
40847;SDS011;26570;50.962;5.340;2023-02-28T10:55:28;1.63;;;0.50;;
40847;SDS011;26570;50.962;5.340;2023-02-28T11:01:36;0.73;;;0.40;;
40847;SDS011;26570;50.962;5.340;2023-02-28T11:04:40;1.53;;;0.70;;
40847;SDS011;26570;50.962;5.340;2023-02-28T11:07:52;2.37;;;0.40;;
40847;SDS011;26570;50.962;5.340;2023-02-28T11:10:56;2.43;;;0.50;;
40847;SDS011;26570;50.962;5.340;2023-02-28T11:21:31;1.27;;;0.50;;
40847;SDS011;26570;50.962;5.340;2023-02-28T11:24:45;0.77;;;0.47;;
40847;SDS011;26570;50.962;5.340;2023-02-28T11:28:01;8.17;;;0.50;;
40847;SDS011;26570;50.962;5.340;2023-02-28T11:31:16;1.17;;;0.50;;
40847;SDS011;26570;50.962;5.340;2023-02-28T11:34:36;2.13;;;0.50;;
40847;SDS011;26570;50.962;5.340;2023-02-28T11:37:24;1.40;;;0.60;;
40847;SDS011;26570;50.962;5.340;2023-02-28T11:40:16;2.07;;;0.40;;
40847;SDS011;26570;50.962;5.340;2023-02-28T11:46:58;2.90;;;0.70;;
40847;SDS011;26570;50.962;5.340;2023-02-28T11:57:08;2.90;;;0.43;;
40847;SDS011;26570;50.962;5.340;2023-02-28T12:04:25;1.70;;;0.50;;
40847;SDS011;26570;50.962;5.340;2023-02-28T12:17:34;1.97;;;0.47;;
40847;SDS011;26570;50.962;5.340;2023-02-28T12:24:14;6.70;;;0.50;;
40847;SDS011;26570;50.962;5.340;2023-02-28T12:27:40;3.33;;;0.60;;
40847;SDS011;26570;50.962;5.340;2023-02-28T12:30:38;1.43;;;0.50;;
40847;SDS011;26570;50.962;5.340;2023-02-28T12:33:42;1.80;;;0.50;;
40847;SDS011;26570;50.962;5.340;2023-02-28T12:36:32;2.53;;;0.50;;
40847;SDS011;26570;50.962;5.340;2023-02-28T12:39:26;4.03;;;0.60;;
40847;SDS011;26570;50.962;5.340;2023-02-28T12:42:42;1.10;;;0.53;;
40847;SDS011;26570;50.962;5.340;2023-02-28T12:45:40;2.67;;;0.57;;
40847;SDS011;26570;50.962;5.340;2023-02-28T12:48:53;2.00;;;0.60;;
40847;SDS011;26570;50.962;5.340;2023-02-28T12:51:41;6.67;;;0.60;;
40847;SDS011;26570;50.962;5.340;2023-02-28T12:57:56;1.90;;;0.53;;
40847;SDS011;26570;50.962;5.340;2023-02-28T13:00:58;3.90;;;0.50;;
40847;SDS011;26570;50.962;5.340;2023-02-28T13:07:15;2.40;;;0.60;;
40847;SDS011;26570;50.962;5.340;2023-02-28T13:10:22;3.53;;;0.57;;
40847;SDS011;26570;50.962;5.340;2023-02-28T13:13:32;1.67;;;0.60;;
40847;SDS011;26570;50.962;5.340;2023-02-28T13:20:13;2.20;;;0.60;;
40847;SDS011;26570;50.962;5.340;2023-02-28T13:23:37;7.03;;;0.67;;
40847;SDS011;26570;50.962;5.340;2023-02-28T13:36:08;2.43;;;0.60;;
40847;SDS011;26570;50.962;5.340;2023-02-28T13:46:07;2.33;;;0.80;;
40847;SDS011;26570;50.962;5.340;2023-02-28T13:49:40;3.97;;;0.60;;
40847;SDS011;26570;50.962;5.340;2023-02-28T13:52:19;1.57;;;0.70;;
40847;SDS011;26570;50.962;5.340;2023-02-28T14:01:46;2.83;;;0.70;;
40847;SDS011;26570;50.962;5.340;2023-02-28T14:04:57;2.53;;;0.60;;
40847;SDS011;26570;50.962;5.340;2023-02-28T14:08:13;3.10;;;0.80;;
40847;SDS011;26570;50.962;5.340;2023-02-28T14:11:23;1.17;;;0.50;;
40847;SDS011;26570;50.962;5.340;2023-02-28T14:17:43;4.07;;;0.70;;
40847;SDS011;26570;50.962;5.340;2023-02-28T14:20:30;1.77;;;0.70;;
40847;SDS011;26570;50.962;5.340;2023-02-28T14:39:41;1.93;;;0.90;;
40847;SDS011;26570;50.962;5.340;2023-02-28T14:45:19;4.53;;;0.70;;
40847;SDS011;26570;50.962;5.340;2023-02-28T14:48:32;2.57;;;0.70;;
40847;SDS011;26570;50.962;5.340;2023-02-28T14:51:45;2.10;;;0.70;;
40847;SDS011;26570;50.962;5.340;2023-02-28T14:54:31;1.53;;;0.53;;
40847;SDS011;26570;50.962;5.340;2023-02-28T14:57:40;2.07;;;0.70;;
40847;SDS011;26570;50.962;5.340;2023-02-28T15:01:03;3.60;;;0.70;;
40847;SDS011;26570;50.962;5.340;2023-02-28T15:04:18;1.20;;;0.53;;
40847;SDS011;26570;50.962;5.340;2023-02-28T15:07:13;1.27;;;0.53;;
40847;SDS011;26570;50.962;5.340;2023-02-28T15:10:25;3.00;;;0.53;;
40847;SDS011;26570;50.962;5.340;2023-02-28T15:13:15;1.53;;;0.60;;
40847;SDS011;26570;50.962;5.340;2023-02-28T15:16:01;1.30;;;0.60;;
40847;SDS011;26570;50.962;5.340;2023-02-28T15:21:43;1.27;;;0.60;;
40847;SDS011;26570;50.962;5.340;2023-02-28T15:24:40;1.37;;;0.67;;
40847;SDS011;26570;50.962;5.340;2023-02-28T15:27:53;1.77;;;0.63;;
40847;SDS011;26570;50.962;5.340;2023-02-28T15:30:49;2.27;;;0.60;;
40847;SDS011;26570;50.962;5.340;2023-02-28T15:33:51;2.97;;;0.80;;
40847;SDS011;26570;50.962;5.340;2023-02-28T15:36:38;3.83;;;0.70;;
40847;SDS011;26570;50.962;5.340;2023-02-28T15:39:24;4.17;;;1.47;;
40847;SDS011;26570;50.962;5.340;2023-02-28T15:42:13;1.97;;;0.70;;
40847;SDS011;26570;50.962;5.340;2023-02-28T15:45:03;2.43;;;0.70;;
40847;SDS011;26570;50.962;5.340;2023-02-28T15:47:49;3.60;;;0.70;;
40847;SDS011;26570;50.962;5.340;2023-02-28T15:50:35;6.53;;;0.90;;
40847;SDS011;26570;50.962;5.340;2023-02-28T15:53:24;8.47;;;0.77;;
40847;SDS011;26570;50.962;5.340;2023-02-28T15:56:46;4.87;;;0.90;;
40847;SDS011;26570;50.962;5.340;2023-02-28T16:00:00;2.07;;;0.70;;
40847;SDS011;26570;50.962;5.340;2023-02-28T16:02:48;4.70;;;0.70;;
40847;SDS011;26570;50.962;5.340;2023-02-28T16:05:33;1.73;;;0.60;;
40847;SDS011;26570;50.962;5.340;2023-02-28T16:08:19;2.20;;;0.60;;
40847;SDS011;26570;50.962;5.340;2023-02-28T16:11:04;1.60;;;0.70;;
40847;SDS011;26570;50.962;5.340;2023-02-28T16:13:52;3.90;;;0.70;;
40847;SDS011;26570;50.962;5.340;2023-02-28T16:16:44;3.50;;;0.70;;
40847;SDS011;26570;50.962;5.340;2023-02-28T16:19:32;1.60;;;0.70;;
40847;SDS011;26570;50.962;5.340;2023-02-28T16:22:17;2.53;;;0.70;;
40847;SDS011;26570;50.962;5.340;2023-02-28T16:25:02;1.90;;;0.80;;
40847;SDS011;26570;50.962;5.340;2023-02-28T16:27:49;2.30;;;0.80;;
40847;SDS011;26570;50.962;5.340;2023-02-28T16:31:02;3.37;;;0.70;;
40847;SDS011;26570;50.962;5.340;2023-02-28T16:33:50;2.57;;;0.90;;
40847;SDS011;26570;50.962;5.340;2023-02-28T16:36:36;2.03;;;0.80;;
40847;SDS011;26570;50.962;5.340;2023-02-28T16:39:22;2.43;;;0.80;;
40847;SDS011;26570;50.962;5.340;2023-02-28T16:42:09;4.17;;;0.90;;
40847;SDS011;26570;50.962;5.340;2023-02-28T16:45:20;1.90;;;0.90;;
40847;SDS011;26570;50.962;5.340;2023-02-28T16:48:16;2.90;;;0.90;;
40847;SDS011;26570;50.962;5.340;2023-02-28T16:51:02;2.13;;;0.93;;
40847;SDS011;26570;50.962;5.340;2023-02-28T16:53:48;1.90;;;0.90;;
40847;SDS011;26570;50.962;5.340;2023-02-28T16:56:33;3.63;;;0.90;;
40847;SDS011;26570;50.962;5.340;2023-02-28T16:59:19;3.23;;;0.90;;
40847;SDS011;26570;50.962;5.340;2023-02-28T17:02:30;4.63;;;0.80;;
40847;SDS011;26570;50.962;5.340;2023-02-28T17:05:16;1.60;;;0.80;;
40847;SDS011;26570;50.962;5.340;2023-02-28T17:08:08;2.80;;;0.70;;
40847;SDS011;26570;50.962;5.340;2023-02-28T17:10:54;2.67;;;0.70;;
40847;SDS011;26570;50.962;5.340;2023-02-28T17:13:39;2.00;;;0.70;;
40847;SDS011;26570;50.962;5.340;2023-02-28T17:19:16;3.13;;;0.80;;
40847;SDS011;26570;50.962;5.340;2023-02-28T17:22:02;3.30;;;1.10;;
40847;SDS011;26570;50.962;5.340;2023-02-28T17:24:48;6.70;;;0.90;;
40847;SDS011;26570;50.962;5.340;2023-02-28T17:27:33;4.10;;;0.90;;
40847;SDS011;26570;50.962;5.340;2023-02-28T17:30:19;1.93;;;0.80;;
40847;SDS011;26570;50.962;5.340;2023-02-28T17:33:11;7.05;;;1.27;;
40847;SDS011;26570;50.962;5.340;2023-02-28T17:35:56;2.53;;;0.87;;
40847;SDS011;26570;50.962;5.340;2023-02-28T17:38:42;2.10;;;0.90;;
40847;SDS011;26570;50.962;5.340;2023-02-28T17:41:50;7.50;;;1.30;;
40847;SDS011;26570;50.962;5.340;2023-02-28T17:45:01;5.50;;;2.07;;
40847;SDS011;26570;50.962;5.340;2023-02-28T17:48:09;6.47;;;1.57;;
40847;SDS011;26570;50.962;5.340;2023-02-28T17:50:58;3.80;;;1.47;;
40847;SDS011;26570;50.962;5.340;2023-02-28T17:53:43;4.13;;;1.30;;
40847;SDS011;26570;50.962;5.340;2023-02-28T17:56:54;5.20;;;2.10;;
40847;SDS011;26570;50.962;5.340;2023-02-28T17:59:39;17.07;;;4.67;;
40847;SDS011;26570;50.962;5.340;2023-02-28T18:02:26;17.17;;;7.13;;
40847;SDS011;26570;50.962;5.340;2023-02-28T18:05:11;21.20;;;7.93;;
40847;SDS011;26570;50.962;5.340;2023-02-28T18:07:56;19.43;;;8.07;;
40847;SDS011;26570;50.962;5.340;2023-02-28T18:10:42;25.30;;;9.90;;
40847;SDS011;26570;50.962;5.340;2023-02-28T18:13:51;21.27;;;11.17;;
40847;SDS011;26570;50.962;5.340;2023-02-28T18:16:41;17.33;;;7.27;;
40847;SDS011;26570;50.962;5.340;2023-02-28T18:19:27;11.27;;;5.53;;
40847;SDS011;26570;50.962;5.340;2023-02-28T18:22:12;8.90;;;4.33;;
40847;SDS011;26570;50.962;5.340;2023-02-28T18:25:01;6.97;;;3.73;;
40847;SDS011;26570;50.962;5.340;2023-02-28T18:27:47;8.03;;;4.00;;
40847;SDS011;26570;50.962;5.340;2023-02-28T18:31:07;9.70;;;3.03;;
40847;SDS011;26570;50.962;5.340;2023-02-28T18:33:53;8.60;;;3.93;;
40847;SDS011;26570;50.962;5.340;2023-02-28T18:36:38;6.43;;;2.93;;
40847;SDS011;26570;50.962;5.340;2023-02-28T18:39:25;9.00;;;3.63;;
40847;SDS011;26570;50.962;5.340;2023-02-28T18:42:10;13.13;;;4.77;;
40847;SDS011;26570;50.962;5.340;2023-02-28T18:44:55;6.87;;;4.47;;
40847;SDS011;26570;50.962;5.340;2023-02-28T18:47:43;8.63;;;4.30;;
40847;SDS011;26570;50.962;5.340;2023-02-28T18:50:30;7.83;;;4.63;;
40847;SDS011;26570;50.962;5.340;2023-02-28T18:53:54;8.87;;;5.33;;
40847;SDS011;26570;50.962;5.340;2023-02-28T18:56:39;10.83;;;4.60;;
40847;SDS011;26570;50.962;5.340;2023-02-28T18:59:28;10.07;;;5.13;;
40847;SDS011;26570;50.962;5.340;2023-02-28T19:02:39;10.67;;;5.23;;
40847;SDS011;26570;50.962;5.340;2023-02-28T19:05:23;12.57;;;5.53;;
40847;SDS011;26570;50.962;5.340;2023-02-28T19:08:12;11.73;;;6.07;;
40847;SDS011;26570;50.962;5.340;2023-02-28T19:10:59;11.17;;;6.13;;
40847;SDS011;26570;50.962;5.340;2023-02-28T19:14:13;13.57;;;5.40;;
40847;SDS011;26570;50.962;5.340;2023-02-28T19:17:01;9.63;;;5.93;;
40847;SDS011;26570;50.962;5.340;2023-02-28T19:19:49;11.53;;;5.67;;
40847;SDS011;26570;50.962;5.340;2023-02-28T19:22:57;12.27;;;6.37;;
40847;SDS011;26570;50.962;5.340;2023-02-28T19:25:48;8.47;;;5.40;;
40847;SDS011;26570;50.962;5.340;2023-02-28T19:28:33;13.13;;;5.37;;
40847;SDS011;26570;50.962;5.340;2023-02-28T19:31:21;8.63;;;5.70;;
40847;SDS011;26570;50.962;5.340;2023-02-28T19:34:30;9.50;;;4.97;;
40847;SDS011;26570;50.962;5.340;2023-02-28T19:37:15;11.37;;;4.93;;
40847;SDS011;26570;50.962;5.340;2023-02-28T19:40:06;7.93;;;5.00;;
40847;SDS011;26570;50.962;5.340;2023-02-28T19:43:03;11.17;;;4.20;;
40847;SDS011;26570;50.962;5.340;2023-02-28T19:46:16;9.13;;;5.67;;
40847;SDS011;26570;50.962;5.340;2023-02-28T19:49:02;11.13;;;5.60;;
40847;SDS011;26570;50.962;5.340;2023-02-28T19:51:47;9.70;;;5.60;;
40847;SDS011;26570;50.962;5.340;2023-02-28T19:54:33;15.17;;;6.23;;
40847;SDS011;26570;50.962;5.340;2023-02-28T19:57:18;12.47;;;5.53;;
40847;SDS011;26570;50.962;5.340;2023-02-28T20:00:06;8.20;;;5.43;;
40847;SDS011;26570;50.962;5.340;2023-02-28T20:02:53;6.17;;;5.10;;
40847;SDS011;26570;50.962;5.340;2023-02-28T20:05:38;10.63;;;5.00;;
40847;SDS011;26570;50.962;5.340;2023-02-28T20:08:24;6.83;;;4.87;;
40847;SDS011;26570;50.962;5.340;2023-02-28T20:11:13;7.30;;;5.07;;
40847;SDS011;26570;50.962;5.340;2023-02-28T20:14:00;11.37;;;5.63;;
40847;SDS011;26570;50.962;5.340;2023-02-28T20:16:48;10.13;;;7.03;;
40847;SDS011;26570;50.962;5.340;2023-02-28T20:19:56;9.57;;;6.23;;
40847;SDS011;26570;50.962;5.340;2023-02-28T20:22:42;9.70;;;6.43;;
40847;SDS011;26570;50.962;5.340;2023-02-28T20:25:27;10.60;;;6.50;;
40847;SDS011;26570;50.962;5.340;2023-02-28T20:28:36;10.37;;;6.70;;
40847;SDS011;26570;50.962;5.340;2023-02-28T20:31:45;8.60;;;7.03;;
40847;SDS011;26570;50.962;5.340;2023-02-28T20:34:30;13.13;;;8.13;;
40847;SDS011;26570;50.962;5.340;2023-02-28T20:37:16;15.80;;;7.70;;
40847;SDS011;26570;50.962;5.340;2023-02-28T20:40:01;13.83;;;7.80;;
40847;SDS011;26570;50.962;5.340;2023-02-28T20:43:12;11.53;;;6.50;;
40847;SDS011;26570;50.962;5.340;2023-02-28T20:45:57;11.03;;;7.00;;
40847;SDS011;26570;50.962;5.340;2023-02-28T20:48:49;11.80;;;7.03;;
40847;SDS011;26570;50.962;5.340;2023-02-28T20:51:58;11.63;;;7.10;;
40847;SDS011;26570;50.962;5.340;2023-02-28T20:54:43;8.63;;;6.20;;
40847;SDS011;26570;50.962;5.340;2023-02-28T20:57:33;10.83;;;5.90;;
40847;SDS011;26570;50.962;5.340;2023-02-28T21:00:40;10.97;;;6.63;;
40847;SDS011;26570;50.962;5.340;2023-02-28T21:03:25;15.70;;;9.30;;